Ocean Glory — KOGH — position and weather

sailwx.info

Track history (hours):
 
Tides and Currents Weather Stations Pressure Air Temp Water Temp Dewpoint Dewpoint Depression Visibility Wind Speed Wind Dir Waves Ship Positions

Ocean Glory

Owner: Crowley Global Ship Management, Jacksonville, FL. More information available from US FCC via Universal Licensing System and Coast Guard Vessel Documentation Center.

Last reported at 2018-Jul-18 05:42 UTC. Time now 2018-Jul-19 19:32 UTC.
Position N 37°46' E 025°45'.

Length 171 m; draft 7.6 m.

Type: Cargo ship. MMSI: 367721220.

Date/timePositionNaut miles runAvg speedWind from/ knotsBaromVisibWave heightAir tempDewpointWater temp
2018-Jul-18 05:42N 37°46' E 025°45'414.0
2018-Jul-18 05:26N 37°43' E 025°46'1514.3
2018-Jul-18 04:22N 37°28' E 025°48'514.1
2018-Jul-18 04:00N 37°25' E 025°54'41114.4
2018-Jul-16 23:29N 32°60' E 032°17'3815.3
2018-Jul-16 21:01N 32°40' E 032°56'016.8
2018-Jul-16 21:00N 32°40' E 032°56'1015.3
2018-Jul-16 20:23N 32°36' E 033°06'615.2
2018-Jul-16 20:00N 32°33' E 033°12'815.0
2018-Jul-16 19:30N 32°29' E 033°20'715.0
2018-Jul-16 19:00N 32°25' E 033°27'815.0
2018-Jul-16 18:30N 32°21' E 033°34'715.0
2018-Jul-16 18:00N 32°16' E 033°42'814.9
2018-Jul-16 17:30N 32°12' E 033°49'915.0
2018-Jul-16 16:56N 32°07' E 033°58'1014.9
2018-Jul-16 16:17N 32°02' E 034°07'514.9
2018-Jul-16 15:58N 32°00' E 034°12'714.8
2018-Jul-16 15:30N 31°57' E 034°19'714.8
2018-Jul-16 15:00N 31°53' E 034°27'713.4
2018-Jul-16 14:30N 31°49' E 034°33'3 4.7
2018-Jul-16 13:58N 31°48' E 034°36'0 0.0
2018-Jul-16 12:58N 31°48' E 034°36'4 0.3
2018-Jul-16 00:15N 31°52' E 034°37'  
2018-Jul-13 09:44N 31°52' E 034°38'2 5.0
2018-Jul-13 09:26N 31°51' E 034°37'1 0.2
2018-Jul-13 05:06N 31°50' E 034°37'  
Track history (hours):
 
Tides and Currents Weather Stations Pressure Air Temp Water Temp Dewpoint Dewpoint Depression Visibility Wind Speed Wind Dir Waves Ship Positions

Ocean Glory

Owner: Crowley Global Ship Management, Jacksonville, FL. More information available from US FCC via Universal Licensing System and Coast Guard Vessel Documentation Center.

Last reported at 2018-Jul-18 05:42 UTC. Time now 2018-Jul-19 19:32 UTC.
Position N 37°46' E 025°45'.

Length 171 m; draft 7.6 m.

Type: Cargo ship. MMSI: 367721220.

Date/timePositionNaut miles runAvg speedWind from/ knotsBaromVisibWave heightAir tempDewpointWater temp
2018-Jul-18 05:42N 37°46' E 025°45'414.0
2018-Jul-18 05:26N 37°43' E 025°46'1514.3
2018-Jul-18 04:22N 37°28' E 025°48'514.1
2018-Jul-18 04:00N 37°25' E 025°54'41114.4
2018-Jul-16 23:29N 32°60' E 032°17'3815.3
2018-Jul-16 21:01N 32°40' E 032°56'016.8
2018-Jul-16 21:00N 32°40' E 032°56'1015.3
2018-Jul-16 20:23N 32°36' E 033°06'615.2
2018-Jul-16 20:00N 32°33' E 033°12'815.0
2018-Jul-16 19:30N 32°29' E 033°20'715.0
2018-Jul-16 19:00N 32°25' E 033°27'815.0
2018-Jul-16 18:30N 32°21' E 033°34'715.0
2018-Jul-16 18:00N 32°16' E 033°42'814.9
2018-Jul-16 17:30N 32°12' E 033°49'915.0
2018-Jul-16 16:56N 32°07' E 033°58'1014.9
2018-Jul-16 16:17N 32°02' E 034°07'514.9
2018-Jul-16 15:58N 32°00' E 034°12'714.8
2018-Jul-16 15:30N 31°57' E 034°19'714.8
2018-Jul-16 15:00N 31°53' E 034°27'713.4
2018-Jul-16 14:30N 31°49' E 034°33'3 4.7
2018-Jul-16 13:58N 31°48' E 034°36'0 0.0
2018-Jul-16 12:58N 31°48' E 034°36'4 0.3
2018-Jul-16 00:15N 31°52' E 034°37'  
2018-Jul-13 09:44N 31°52' E 034°38'2 5.0
2018-Jul-13 09:26N 31°51' E 034°37'1 0.2
2018-Jul-13 05:06N 31°50' E 034°37'  

Dump ship's entire track history